createdAt,value
2023-01-05T00:00:00.573Z,11.63
2023-01-05T00:01:00.550Z,11.54
2023-01-05T00:02:00.619Z,11.54
2023-01-05T00:03:00.545Z,11.55
2023-01-05T00:04:00.677Z,11.52
2023-01-05T00:05:00.538Z,11.51
2023-01-05T00:06:00.577Z,11.55
2023-01-05T00:07:00.533Z,11.51
2023-01-05T00:08:00.534Z,11.50
2023-01-05T00:09:00.550Z,11.52
2023-01-05T00:10:00.522Z,11.54
2023-01-05T00:11:00.524Z,11.51
2023-01-05T00:12:00.515Z,11.47
2023-01-05T00:13:00.512Z,11.51
2023-01-05T00:14:00.529Z,11.50
2023-01-05T00:15:00.526Z,11.51
2023-01-05T00:16:00.510Z,11.59
2023-01-05T00:17:00.541Z,11.55
2023-01-05T00:18:00.500Z,11.59
2023-01-05T00:19:00.500Z,11.51
2023-01-05T00:20:00.490Z,11.55
2023-01-05T00:21:00.492Z,11.52
2023-01-05T00:22:00.502Z,11.54
2023-01-05T00:23:00.485Z,11.57
2023-01-05T00:24:00.478Z,11.57
2023-01-05T00:25:02.250Z,11.55
2023-01-05T00:26:00.476Z,11.60
2023-01-05T00:27:00.474Z,11.52
2023-01-05T00:28:00.502Z,11.48
2023-01-05T00:29:00.461Z,11.57
2023-01-05T00:30:00.477Z,11.51
2023-01-05T00:31:00.457Z,11.57
2023-01-05T00:32:00.501Z,11.51
2023-01-05T00:33:00.450Z,11.51
2023-01-05T00:34:00.449Z,11.59
2023-01-05T00:35:00.466Z,11.51
2023-01-05T00:36:00.441Z,11.45
2023-01-05T00:37:00.444Z,11.54
2023-01-05T00:38:00.460Z,11.51
2023-01-05T00:39:00.434Z,11.48
2023-01-05T00:40:00.429Z,11.48
2023-01-05T00:41:00.429Z,11.47
2023-01-05T00:42:00.419Z,11.45
2023-01-05T00:43:00.425Z,11.48
2023-01-05T00:44:00.415Z,11.44
2023-01-05T00:45:00.422Z,11.48
2023-01-05T00:46:00.524Z,11.47
2023-01-05T00:47:00.406Z,11.45
2023-01-05T00:48:00.405Z,11.41
2023-01-05T00:49:00.408Z,11.47
2023-01-05T00:50:00.392Z,11.41
2023-01-05T00:51:00.397Z,11.47
2023-01-05T00:52:00.391Z,11.50
2023-01-05T00:53:00.387Z,11.50
2023-01-05T00:54:00.397Z,11.37
2023-01-05T00:55:00.388Z,11.47
2023-01-05T00:56:00.381Z,11.43
2023-01-05T00:57:00.372Z,11.41
2023-01-05T00:58:00.371Z,11.41
2023-01-05T00:59:00.373Z,11.45
2023-01-05T01:00:00.366Z,11.45
2023-01-05T01:01:00.498Z,11.44
2023-01-05T01:02:00.610Z,11.40
2023-01-05T01:03:00.488Z,11.48
2023-01-05T01:04:00.349Z,11.40
2023-01-05T01:05:00.359Z,11.37
2023-01-05T01:06:00.360Z,11.43
2023-01-05T01:07:00.345Z,11.44
2023-01-05T01:08:00.343Z,11.40
2023-01-05T01:09:00.346Z,11.44
2023-01-05T01:10:00.348Z,11.45
2023-01-05T01:11:00.330Z,11.45
2023-01-05T01:12:00.479Z,11.44
2023-01-05T01:13:00.324Z,11.43
2023-01-05T01:14:00.317Z,11.44
2023-01-05T01:15:00.318Z,11.41
2023-01-05T01:16:00.311Z,11.41
2023-01-05T01:17:00.470Z,11.44
2023-01-05T01:18:00.303Z,11.43
2023-01-05T01:19:04.989Z,11.45
2023-01-05T01:20:00.304Z,11.47
2023-01-05T01:21:00.302Z,11.37
2023-01-05T01:22:00.291Z,11.47
2023-01-05T01:23:00.290Z,11.41
2023-01-05T01:24:00.282Z,11.40
2023-01-05T01:25:00.291Z,11.44
2023-01-05T01:26:00.296Z,11.47
2023-01-05T01:27:00.291Z,11.36
2023-01-05T01:28:00.282Z,11.37
2023-01-05T01:29:00.285Z,11.41
2023-01-05T01:30:00.265Z,11.33
2023-01-05T01:31:00.317Z,11.45
2023-01-05T01:32:00.257Z,11.40
2023-01-05T01:33:00.260Z,11.32
2023-01-05T01:34:00.250Z,11.33
2023-01-05T01:35:00.256Z,11.33
2023-01-05T01:36:00.243Z,11.32
2023-01-05T01:37:00.251Z,11.36
2023-01-05T01:38:00.239Z,11.35
2023-01-05T01:39:00.238Z,11.36
2023-01-05T01:40:00.229Z,11.32
2023-01-05T01:41:00.233Z,11.33
2023-01-05T01:42:00.247Z,11.32
2023-01-05T01:43:00.239Z,11.33
2023-01-05T01:44:00.238Z,11.33
2023-01-05T01:45:00.223Z,11.33
2023-01-05T01:46:00.301Z,11.33
2023-01-05T01:47:00.215Z,11.32
2023-01-05T01:48:00.205Z,11.32
2023-01-05T01:49:00.203Z,11.33
2023-01-05T01:50:00.207Z,11.32
2023-01-05T01:51:07.728Z,11.32
2023-01-05T01:52:00.191Z,11.29
2023-01-05T01:53:00.190Z,11.29
2023-01-05T01:54:00.186Z,11.33
2023-01-05T01:55:00.194Z,11.25
2023-01-05T01:56:00.179Z,11.27
2023-01-05T01:57:00.183Z,11.27
2023-01-05T01:58:00.203Z,11.25
2023-01-05T01:59:00.171Z,11.29
2023-01-05T02:00:00.232Z,11.29
2023-01-05T02:01:00.289Z,11.32
2023-01-05T02:02:00.365Z,11.23
2023-01-05T02:03:00.156Z,11.18
2023-01-05T02:04:00.296Z,11.25
2023-01-05T02:05:00.154Z,11.26
2023-01-05T02:06:00.144Z,11.25
2023-01-05T02:07:00.148Z,11.23
2023-01-05T02:08:00.144Z,11.22
2023-01-05T02:09:00.139Z,11.19
2023-01-05T02:10:00.134Z,11.27
2023-01-05T02:11:00.132Z,11.17
2023-01-05T02:12:00.328Z,11.23
2023-01-05T02:13:00.125Z,11.14
2023-01-05T02:14:00.140Z,11.29
2023-01-05T02:15:00.136Z,11.27
2023-01-05T02:16:00.128Z,11.27
2023-01-05T02:17:00.170Z,11.25
2023-01-05T02:18:00.127Z,11.18
2023-01-05T02:19:00.117Z,11.27
2023-01-05T02:20:00.134Z,11.18
2023-01-05T02:21:00.153Z,11.23
2023-01-05T02:22:00.154Z,11.15
2023-01-05T02:23:00.110Z,11.18
2023-01-05T02:24:00.120Z,11.15
2023-01-05T02:25:00.095Z,11.26
2023-01-05T02:26:00.103Z,11.19
2023-01-05T02:27:00.112Z,11.17
2023-01-05T02:28:00.106Z,11.12
2023-01-05T02:29:00.127Z,11.19
2023-01-05T02:30:00.112Z,11.15
2023-01-05T02:31:00.161Z,11.18
2023-01-05T02:32:00.077Z,11.12
2023-01-05T02:33:00.096Z,11.22
2023-01-05T02:34:00.052Z,11.15
2023-01-05T02:35:00.051Z,11.14
2023-01-05T02:36:00.052Z,11.19
2023-01-05T02:37:00.049Z,11.23
2023-01-05T02:38:00.045Z,11.19
2023-01-05T02:39:00.044Z,11.22
2023-01-05T02:40:00.060Z,11.14
2023-01-05T02:41:00.035Z,11.18
2023-01-05T02:42:00.036Z,11.17
2023-01-05T02:43:00.033Z,11.19
2023-01-05T02:44:00.030Z,11.12
2023-01-05T02:45:00.018Z,11.14
2023-01-05T02:46:00.156Z,11.12
2023-01-05T02:47:00.016Z,11.11
2023-01-05T02:48:00.008Z,11.11
2023-01-05T02:49:00.010Z,11.12
2023-01-05T02:50:00.005Z,11.10
2023-01-05T02:51:00.003Z,11.11
2023-01-05T02:52:00.007Z,11.07
2023-01-05T02:53:00.005Z,11.10
2023-01-05T02:53:59.991Z,11.05
2023-01-05T02:54:59.987Z,11.08
2023-01-05T02:55:59.989Z,11.07
2023-01-05T02:56:59.978Z,11.10
2023-01-05T02:57:59.972Z,11.08
2023-01-05T02:58:59.973Z,11.12
2023-01-05T02:59:59.967Z,11.11
2023-01-05T03:01:00.049Z,11.05
2023-01-05T03:02:00.117Z,11.10
2023-01-05T03:03:00.085Z,11.08
2023-01-05T03:03:59.953Z,11.08
2023-01-05T03:04:59.966Z,11.11
2023-01-05T03:05:59.948Z,11.11
2023-01-05T03:06:59.962Z,11.07
2023-01-05T03:07:59.948Z,11.05
2023-01-05T03:08:59.939Z,11.14
2023-01-05T03:09:59.939Z,11.10
2023-01-05T03:10:59.936Z,11.04
2023-01-05T03:11:59.941Z,11.07
2023-01-05T03:13:00.128Z,11.07
2023-01-05T03:13:59.921Z,11.05
2023-01-05T03:14:59.924Z,11.11
2023-01-05T03:15:59.954Z,11.04
2023-01-05T03:16:59.912Z,11.05
2023-01-05T03:17:59.926Z,11.08
2023-01-05T03:18:59.918Z,11.07
2023-01-05T03:19:59.905Z,11.08
2023-01-05T03:20:59.898Z,11.15
2023-01-05T03:21:59.894Z,11.04
2023-01-05T03:22:59.898Z,11.02
2023-01-05T03:23:59.887Z,11.00
2023-01-05T03:24:59.888Z,11.07
2023-01-05T03:25:59.882Z,11.00
2023-01-05T03:26:59.880Z,11.05
2023-01-05T03:27:59.875Z,11.04
2023-01-05T03:28:59.879Z,11.02
2023-01-05T03:29:59.867Z,11.02
2023-01-05T03:30:59.896Z,11.05
2023-01-05T03:31:59.864Z,11.11
2023-01-05T03:32:59.864Z,11.04
2023-01-05T03:33:59.871Z,11.04
2023-01-05T03:34:59.854Z,11.10
2023-01-05T03:35:59.848Z,11.07
2023-01-05T03:36:59.849Z,10.99
2023-01-05T03:37:59.843Z,11.04
2023-01-05T03:38:59.844Z,11.08
2023-01-05T03:39:59.833Z,11.05
2023-01-05T03:40:59.830Z,11.04
2023-01-05T03:41:59.826Z,11.07
2023-01-05T03:42:59.822Z,11.05
2023-01-05T03:43:59.820Z,11.00
2023-01-05T03:44:59.815Z,11.08
2023-01-05T03:45:59.891Z,11.04
2023-01-05T03:46:59.821Z,11.05
2023-01-05T03:47:59.806Z,11.05
2023-01-05T03:48:59.807Z,11.00
2023-01-05T03:49:59.841Z,10.99
2023-01-05T03:50:59.798Z,11.02
2023-01-05T03:51:59.802Z,10.96
2023-01-05T03:52:59.790Z,10.89
2023-01-05T03:53:59.785Z,10.90
2023-01-05T03:54:59.781Z,10.90
2023-01-05T03:55:59.779Z,10.92
2023-01-05T03:56:59.776Z,11.00
2023-01-05T03:57:59.774Z,10.96
2023-01-05T03:58:59.767Z,10.92
2023-01-05T03:59:59.786Z,10.81
2023-01-05T04:00:59.761Z,10.81
2023-01-05T04:01:59.877Z,10.94
2023-01-05T04:02:59.878Z,10.84
2023-01-05T04:03:59.846Z,10.92
2023-01-05T04:04:59.749Z,10.84
2023-01-05T04:05:59.798Z,10.86
2023-01-05T04:06:59.742Z,10.86
2023-01-05T04:07:59.754Z,10.82
2023-01-05T04:08:59.734Z,10.90
2023-01-05T04:09:59.732Z,10.84
2023-01-05T04:10:59.727Z,10.84
2023-01-05T04:11:59.727Z,10.84
2023-01-05T04:12:59.736Z,10.84
2023-01-05T04:13:59.717Z,10.89
2023-01-05T04:14:59.719Z,10.92
2023-01-05T04:15:59.746Z,10.86
2023-01-05T04:16:59.713Z,10.89
2023-01-05T04:18:00.084Z,10.87
2023-01-05T04:18:59.702Z,10.90
2023-01-05T04:19:59.699Z,10.84
2023-01-05T04:20:59.695Z,10.81
2023-01-05T04:21:59.726Z,10.75
2023-01-05T04:22:59.686Z,10.71
2023-01-05T04:23:59.690Z,10.71
2023-01-05T04:24:59.709Z,10.68
2023-01-05T04:25:59.693Z,10.74
2023-01-05T04:26:59.680Z,10.75
2023-01-05T04:27:59.669Z,10.63
2023-01-05T04:28:59.668Z,10.59
2023-01-05T04:29:59.684Z,10.60
2023-01-05T04:30:59.697Z,10.63
2023-01-05T04:31:59.659Z,10.64
2023-01-05T04:32:59.653Z,10.60
2023-01-05T04:33:59.660Z,10.53
2023-01-05T04:35:01.745Z,10.51
2023-01-05T04:35:59.656Z,10.51
2023-01-05T04:36:59.638Z,10.51
2023-01-05T04:37:59.652Z,10.42
2023-01-05T04:38:59.635Z,10.40
2023-01-05T04:39:59.637Z,10.41
2023-01-05T04:40:59.631Z,10.40
2023-01-05T04:41:59.626Z,10.41
2023-01-05T04:42:59.624Z,10.40
2023-01-05T04:43:59.621Z,10.41
2023-01-05T04:44:59.618Z,10.41
2023-01-05T04:45:59.697Z,10.37
2023-01-05T04:46:59.607Z,10.30
2023-01-05T04:47:59.603Z,10.30
2023-01-05T04:48:59.604Z,10.34
2023-01-05T04:49:59.599Z,10.37
2023-01-05T04:50:59.591Z,10.28
2023-01-05T04:51:59.589Z,10.37
2023-01-05T04:52:59.584Z,10.37
2023-01-05T04:53:59.604Z,10.41
2023-01-05T04:54:59.584Z,10.40
2023-01-05T04:55:59.588Z,10.44
2023-01-05T04:56:59.573Z,10.26
2023-01-05T04:57:59.568Z,10.40
2023-01-05T04:58:59.565Z,10.38
2023-01-05T04:59:59.583Z,10.38
2023-01-05T05:00:59.557Z,10.41
2023-01-05T05:01:59.687Z,10.40
2023-01-05T05:02:59.609Z,10.38
2023-01-05T05:03:59.548Z,10.31
2023-01-05T05:04:59.548Z,10.37
2023-01-05T05:05:59.540Z,10.37
2023-01-05T05:06:59.537Z,10.37
2023-01-05T05:07:59.539Z,10.35
2023-01-05T05:08:59.555Z,10.38
2023-01-05T05:09:59.551Z,10.35
2023-01-05T05:10:59.527Z,10.30
2023-01-05T05:11:59.522Z,10.30
2023-01-05T05:12:59.521Z,10.35
2023-01-05T05:13:59.519Z,10.30
2023-01-05T05:14:59.511Z,10.20
2023-01-05T05:15:59.558Z,10.22
2023-01-05T05:16:59.503Z,10.19
2023-01-05T05:18:04.180Z,10.20
2023-01-05T05:18:59.496Z,10.17
2023-01-05T05:19:59.496Z,10.16
2023-01-05T05:20:59.497Z,10.17
2023-01-05T05:21:59.494Z,10.17
2023-01-05T05:22:59.494Z,10.25
2023-01-05T05:23:59.480Z,10.16
2023-01-05T05:24:59.482Z,10.26
2023-01-05T05:25:59.497Z,10.23
2023-01-05T05:26:59.470Z,10.19
2023-01-05T05:27:59.470Z,10.20
2023-01-05T05:28:59.461Z,10.20
2023-01-05T05:29:59.460Z,10.15
2023-01-05T05:30:59.543Z,10.20
2023-01-05T05:31:59.452Z,10.19
2023-01-05T05:32:59.451Z,10.19
2023-01-05T05:33:59.450Z,10.20
2023-01-05T05:34:59.445Z,10.19
2023-01-05T05:35:59.442Z,10.12
2023-01-05T05:36:59.440Z,10.16
2023-01-05T05:37:59.430Z,10.20
2023-01-05T05:38:59.436Z,10.23
2023-01-05T05:39:59.428Z,10.10
2023-01-05T05:40:59.426Z,10.17
2023-01-05T05:41:59.435Z,10.04
2023-01-05T05:42:59.419Z,10.20
2023-01-05T05:43:59.410Z,10.19
2023-01-05T05:44:59.413Z,10.23
2023-01-05T05:45:59.407Z,10.22
2023-01-05T05:46:59.474Z,10.19
2023-01-05T05:47:59.397Z,10.15
2023-01-05T05:48:59.397Z,10.22
2023-01-05T05:49:59.392Z,10.20
2023-01-05T05:50:59.382Z,10.22
2023-01-05T05:51:59.384Z,10.15
2023-01-05T05:52:59.380Z,10.19
2023-01-05T05:53:59.378Z,10.22
2023-01-05T05:54:59.373Z,10.25
2023-01-05T05:55:59.368Z,10.23
2023-01-05T05:56:59.377Z,10.15
2023-01-05T05:57:59.386Z,10.20
2023-01-05T05:59:01.823Z,10.16
2023-01-05T05:59:59.356Z,10.19
2023-01-05T06:00:59.349Z,10.23
2023-01-05T06:01:59.541Z,10.20
2023-01-05T06:02:59.511Z,10.20
2023-01-05T06:03:59.344Z,10.19
2023-01-05T06:04:59.342Z,10.15
2023-01-05T06:05:59.334Z,10.13
2023-01-05T06:06:59.336Z,10.20
2023-01-05T06:07:59.331Z,10.10
2023-01-05T06:08:59.325Z,10.25
2023-01-05T06:09:59.327Z,10.28
2023-01-05T06:10:59.320Z,10.28
2023-01-05T06:11:59.316Z,10.28
2023-01-05T06:12:59.315Z,10.19
2023-01-05T06:13:59.325Z,10.20
2023-01-05T06:14:59.303Z,10.22
2023-01-05T06:15:59.364Z,10.17
2023-01-05T06:16:59.303Z,10.25
2023-01-05T06:17:59.456Z,10.20
2023-01-05T06:18:59.314Z,10.23
2023-01-05T06:19:59.290Z,10.26
2023-01-05T06:21:01.736Z,10.20
2023-01-05T06:21:59.290Z,10.20
2023-01-05T06:22:59.318Z,10.20
2023-01-05T06:23:59.274Z,10.22
2023-01-05T06:24:59.269Z,10.17
2023-01-05T06:25:59.266Z,10.19
2023-01-05T06:26:59.263Z,10.16
2023-01-05T06:27:59.260Z,10.15
2023-01-05T06:28:59.252Z,10.17
2023-01-05T06:29:59.271Z,10.16
2023-01-05T06:30:59.250Z,10.09
2023-01-05T06:31:59.273Z,10.12
2023-01-05T06:32:59.247Z,10.05
2023-01-05T06:33:59.238Z,10.13
2023-01-05T06:34:59.254Z,10.05
2023-01-05T06:35:59.239Z,10.12
2023-01-05T06:37:02.257Z,10.07
2023-01-05T06:37:59.228Z,10.10
2023-01-05T06:38:59.219Z,10.07
2023-01-05T06:39:59.216Z,10.17
2023-01-05T06:40:59.214Z,10.16
2023-01-05T06:41:59.209Z,10.17
2023-01-05T06:42:59.207Z,10.05
2023-01-05T06:43:59.213Z,10.10
2023-01-05T06:44:59.200Z,10.05
2023-01-05T06:45:59.320Z,10.09
2023-01-05T06:46:59.189Z,10.09
2023-01-05T06:47:59.189Z,10.09
2023-01-05T06:48:59.208Z,10.02
2023-01-05T06:49:59.191Z,10.09
2023-01-05T06:50:59.183Z,10.09
2023-01-05T06:51:59.183Z,10.12
2023-01-05T06:52:59.188Z,10.10
2023-01-05T06:53:59.194Z,10.17
2023-01-05T06:54:59.163Z,10.12
2023-01-05T06:55:59.175Z,10.19
2023-01-05T06:56:59.155Z,10.09
2023-01-05T06:58:01.299Z,10.12
2023-01-05T06:58:59.152Z,10.12
2023-01-05T06:59:59.153Z,10.17
2023-01-05T07:00:59.175Z,10.15
2023-01-05T07:01:59.193Z,10.15
2023-01-05T07:02:59.148Z,10.15
2023-01-05T07:03:59.204Z,10.16
2023-01-05T07:04:59.132Z,10.19
2023-01-05T07:05:59.128Z,10.19
2023-01-05T07:06:59.124Z,10.09
2023-01-05T07:07:59.121Z,10.07
2023-01-05T07:08:59.115Z,10.09
2023-01-05T07:09:59.111Z,10.15
2023-01-05T07:10:59.111Z,10.12
2023-01-05T07:11:59.108Z,10.07
2023-01-05T07:12:59.099Z,10.15
2023-01-05T07:13:59.105Z,10.07
2023-01-05T07:14:59.098Z,10.12
2023-01-05T07:15:59.137Z,10.07
2023-01-05T07:16:59.085Z,10.09
2023-01-05T07:17:59.109Z,10.12
2023-01-05T07:18:59.085Z,10.07
2023-01-05T07:19:59.109Z,10.16
2023-01-05T07:20:59.084Z,10.12
2023-01-05T07:21:59.093Z,10.10
2023-01-05T07:22:59.073Z,10.16
2023-01-05T07:23:59.062Z,10.12
2023-01-05T07:24:59.071Z,10.13
2023-01-05T07:25:59.063Z,10.15
2023-01-05T07:27:00.924Z,10.12
2023-01-05T07:27:59.064Z,10.09
2023-01-05T07:28:59.048Z,10.13
2023-01-05T07:29:59.043Z,10.17
2023-01-05T07:30:59.040Z,10.15
2023-01-05T07:31:59.097Z,10.16
2023-01-05T07:32:59.035Z,10.17
2023-01-05T07:33:59.116Z,10.16
2023-01-05T07:34:59.023Z,10.17
2023-01-05T07:35:59.037Z,10.19
2023-01-05T07:36:59.076Z,10.16
2023-01-05T07:37:59.016Z,10.19
2023-01-05T07:38:59.688Z,10.23
2023-01-05T07:39:59.018Z,10.23
2023-01-05T07:40:59.009Z,10.17
2023-01-05T07:41:59.001Z,10.20
2023-01-05T07:42:58.997Z,10.25
2023-01-05T07:43:58.994Z,10.20
2023-01-05T07:44:58.992Z,10.28
2023-01-05T07:45:59.057Z,10.13
2023-01-05T07:46:58.984Z,10.20
2023-01-05T07:47:58.979Z,10.23
2023-01-05T07:48:58.980Z,10.22
2023-01-05T07:49:58.992Z,10.15
2023-01-05T07:50:58.968Z,10.16
2023-01-05T07:51:58.966Z,10.23
2023-01-05T07:52:58.968Z,10.17
2023-01-05T07:53:58.957Z,10.22
2023-01-05T07:54:58.957Z,10.22
2023-01-05T07:55:58.952Z,10.22
2023-01-05T07:56:58.950Z,10.22
2023-01-05T07:57:58.946Z,10.25
2023-01-05T07:58:58.953Z,10.17
2023-01-05T07:59:58.941Z,10.26
2023-01-05T08:00:59.009Z,10.19
2023-01-05T08:01:59.064Z,10.20
2023-01-05T08:02:58.927Z,10.19
2023-01-05T08:03:58.954Z,10.28
2023-01-05T08:04:58.921Z,10.22
2023-01-05T08:05:58.935Z,10.20
2023-01-05T08:06:58.929Z,10.23
2023-01-05T08:07:58.904Z,10.22
2023-01-05T08:08:58.912Z,10.35
2023-01-05T08:09:58.916Z,10.23
2023-01-05T08:10:58.899Z,10.26
2023-01-05T08:11:58.893Z,10.26
2023-01-05T08:12:58.896Z,10.17
2023-01-05T08:13:58.889Z,10.23
2023-01-05T08:14:58.890Z,10.25
2023-01-05T08:15:58.883Z,10.25
2023-01-05T08:16:58.930Z,10.31
2023-01-05T08:17:58.871Z,10.23
2023-01-05T08:18:59.254Z,10.28
2023-01-05T08:19:58.869Z,10.23
2023-01-05T08:20:58.890Z,10.20
2023-01-05T08:21:58.917Z,10.31
2023-01-05T08:22:58.858Z,10.20
2023-01-05T08:23:58.854Z,10.26
2023-01-05T08:24:58.856Z,10.26
2023-01-05T08:25:59.012Z,10.23
2023-01-05T08:26:58.948Z,10.16
2023-01-05T08:27:58.839Z,10.34
2023-01-05T08:28:58.847Z,10.33
2023-01-05T08:29:58.837Z,10.20
2023-01-05T08:30:58.830Z,10.26
2023-01-05T08:31:58.884Z,10.31
2023-01-05T08:32:58.822Z,10.35
2023-01-05T08:33:58.819Z,10.35
2023-01-05T08:34:58.816Z,10.22
2023-01-05T08:35:58.821Z,10.23
2023-01-05T08:36:58.809Z,10.30
2023-01-05T08:37:58.861Z,10.31
2023-01-05T08:38:58.803Z,10.25
2023-01-05T08:39:58.794Z,10.25
2023-01-05T08:40:58.800Z,10.31
2023-01-05T08:42:02.593Z,10.26
2023-01-05T08:42:58.791Z,10.25
2023-01-05T08:43:58.787Z,10.31
2023-01-05T08:44:58.778Z,10.28
2023-01-05T08:45:58.811Z,10.22
2023-01-05T08:46:58.778Z,10.25
2023-01-05T08:47:58.769Z,10.31
2023-01-05T08:48:58.771Z,10.22
2023-01-05T08:49:58.765Z,10.25
2023-01-05T08:50:58.759Z,10.31
2023-01-05T08:51:58.760Z,10.35
2023-01-05T08:52:58.753Z,10.20
2023-01-05T08:53:58.782Z,10.22
2023-01-05T08:54:58.751Z,10.34
2023-01-05T08:55:58.751Z,10.31
2023-01-05T08:56:58.743Z,10.26
2023-01-05T08:57:58.739Z,10.35
2023-01-05T08:58:58.741Z,10.33
2023-01-05T08:59:58.738Z,10.31
2023-01-05T09:00:58.748Z,10.28
2023-01-05T09:01:58.879Z,10.37
2023-01-05T09:02:58.863Z,10.42
2023-01-05T09:03:58.722Z,10.38
2023-01-05T09:04:58.717Z,10.40
2023-01-05T09:05:58.710Z,10.44
2023-01-05T09:06:58.703Z,10.38
2023-01-05T09:07:58.704Z,10.37
2023-01-05T09:08:58.697Z,10.38
2023-01-05T09:09:58.709Z,10.48
2023-01-05T09:10:58.692Z,10.41
2023-01-05T09:11:58.689Z,10.42
2023-01-05T09:12:58.689Z,10.41
2023-01-05T09:13:58.678Z,10.41
2023-01-05T09:14:58.679Z,10.41
2023-01-05T09:15:58.673Z,10.41
2023-01-05T09:17:07.668Z,10.38
2023-01-05T09:17:58.791Z,10.49
2023-01-05T09:18:58.673Z,10.44
2023-01-05T09:19:58.657Z,10.48
2023-01-05T09:20:58.670Z,10.46
2023-01-05T09:21:58.660Z,10.46
2023-01-05T09:22:58.655Z,10.54
2023-01-05T09:23:58.659Z,10.42
2023-01-05T09:24:58.644Z,10.59
2023-01-05T09:25:58.654Z,10.56
2023-01-05T09:26:58.638Z,10.60
2023-01-05T09:27:58.632Z,10.57
2023-01-05T09:28:58.633Z,10.56
2023-01-05T09:29:58.626Z,10.63
2023-01-05T09:30:58.669Z,10.54
2023-01-05T09:31:58.619Z,10.53
2023-01-05T09:32:58.618Z,10.60
2023-01-05T09:33:58.611Z,10.59
2023-01-05T09:34:58.611Z,10.67
2023-01-05T09:35:58.602Z,10.60
2023-01-05T09:36:58.600Z,10.61
2023-01-05T09:37:58.596Z,10.61
2023-01-05T09:38:58.601Z,10.68
2023-01-05T09:39:58.590Z,10.67
2023-01-05T09:40:58.588Z,10.63
2023-01-05T09:41:58.699Z,10.64
2023-01-05T09:42:58.582Z,10.69
2023-01-05T09:43:58.930Z,10.71
2023-01-05T09:44:59.240Z,10.71
2023-01-05T09:45:58.622Z,10.74
2023-01-05T09:46:58.582Z,10.75
2023-01-05T09:47:58.561Z,10.74
2023-01-05T09:48:58.562Z,10.72
2023-01-05T09:49:58.564Z,10.69
2023-01-05T09:50:58.570Z,10.72
2023-01-05T09:51:58.557Z,10.69
2023-01-05T09:52:58.554Z,10.71
2023-01-05T09:53:58.540Z,10.69
2023-01-05T09:54:58.539Z,10.72
2023-01-05T09:55:58.539Z,10.72
2023-01-05T09:57:09.240Z,10.79
2023-01-05T09:57:58.651Z,10.82
2023-01-05T09:58:58.525Z,10.84
2023-01-05T09:59:58.528Z,10.82
2023-01-05T10:00:58.523Z,10.81
2023-01-05T10:01:58.513Z,10.86
2023-01-05T10:02:58.572Z,10.86
2023-01-05T10:04:05.851Z,10.82
2023-01-05T10:04:58.618Z,10.81
2023-01-05T10:05:58.530Z,10.79
2023-01-05T10:06:58.502Z,10.84
2023-01-05T10:07:58.503Z,10.79
2023-01-05T10:08:58.494Z,10.78
2023-01-05T10:09:58.494Z,10.84
2023-01-05T10:10:58.493Z,10.79
2023-01-05T10:11:58.501Z,10.81
2023-01-05T10:12:58.480Z,10.90
2023-01-05T10:13:58.601Z,10.87
2023-01-05T10:14:58.475Z,10.76
2023-01-05T10:15:58.504Z,10.87
2023-01-05T10:17:30.643Z,10.86
2023-01-05T10:17:58.465Z,10.78
2023-01-05T10:18:58.462Z,10.84
2023-01-05T10:19:58.468Z,10.79
2023-01-05T10:20:58.472Z,10.76
2023-01-05T10:21:58.448Z,10.86
2023-01-05T10:22:58.460Z,10.93
2023-01-05T10:23:58.442Z,10.93
2023-01-05T10:24:58.439Z,10.84
2023-01-05T10:25:58.437Z,10.84
2023-01-05T10:27:24.150Z,10.82
2023-01-05T10:27:58.428Z,10.84
2023-01-05T10:28:58.428Z,10.81
2023-01-05T10:29:58.532Z,10.79
2023-01-05T10:30:58.522Z,10.81
2023-01-05T10:31:58.413Z,10.87
2023-01-05T10:33:22.034Z,10.87
2023-01-05T10:34:03.382Z,10.87
2023-01-05T10:34:58.409Z,10.96
2023-01-05T10:36:01.245Z,10.84
2023-01-05T10:37:13.893Z,10.84
2023-01-05T10:37:58.395Z,10.81
2023-01-05T10:38:58.401Z,10.90
2023-01-05T10:39:58.391Z,10.96
2023-01-05T10:40:58.384Z,10.84
2023-01-05T10:41:58.381Z,10.84
2023-01-05T10:42:58.386Z,10.90
2023-01-05T10:43:58.578Z,10.84
2023-01-05T10:44:58.372Z,10.87
2023-01-05T10:46:29.742Z,10.93
2023-01-05T10:46:58.445Z,10.82
2023-01-05T10:47:58.448Z,10.86
2023-01-05T10:48:58.368Z,10.97
2023-01-05T10:49:58.357Z,10.93
2023-01-05T10:50:58.359Z,11.07
2023-01-05T10:51:58.347Z,11.07
2023-01-05T10:52:58.349Z,11.08
2023-01-05T10:53:58.345Z,10.97
2023-01-05T10:54:58.348Z,10.97
2023-01-05T10:55:58.354Z,11.02
2023-01-05T10:56:58.341Z,10.99
2023-01-05T10:57:58.360Z,11.08
2023-01-05T10:58:58.340Z,10.97
2023-01-05T10:59:58.400Z,11.05
2023-01-05T11:00:58.318Z,11.08
2023-01-05T11:01:58.695Z,11.00
2023-01-05T11:02:58.360Z,11.11
2023-01-05T11:04:58.365Z,11.14
2023-01-05T11:05:58.304Z,11.08
2023-01-05T11:06:58.295Z,11.10
2023-01-05T11:07:58.298Z,11.08
2023-01-05T11:08:58.293Z,11.11
2023-01-05T11:09:58.296Z,11.10
2023-01-05T11:10:58.298Z,11.14
2023-01-05T11:11:58.320Z,11.14
2023-01-05T11:12:58.281Z,11.19
2023-01-05T11:13:58.272Z,11.15
2023-01-05T11:14:59.243Z,11.15
2023-01-05T11:15:58.329Z,11.22
2023-01-05T11:16:58.266Z,11.17
2023-01-05T11:17:58.404Z,11.18
2023-01-05T11:18:58.270Z,11.26
2023-01-05T11:19:58.266Z,11.15
2023-01-05T11:20:58.252Z,11.23
2023-01-05T11:22:02.127Z,11.22
2023-01-05T11:22:58.246Z,11.29
2023-01-05T11:23:58.248Z,11.26
2023-01-05T11:24:58.241Z,11.18
2023-01-05T11:25:58.233Z,11.30
2023-01-05T11:26:58.235Z,11.25
2023-01-05T11:28:05.033Z,11.35
2023-01-05T11:28:58.233Z,11.26
2023-01-05T11:29:58.221Z,11.29
2023-01-05T11:30:58.230Z,11.29
2023-01-05T11:31:58.224Z,11.32
2023-01-05T11:32:58.217Z,11.32
2023-01-05T11:33:58.231Z,11.37
2023-01-05T11:34:58.215Z,11.35
2023-01-05T11:35:58.202Z,11.29
2023-01-05T11:37:01.299Z,11.30
2023-01-05T11:37:58.234Z,11.43
2023-01-05T11:38:58.193Z,11.37
2023-01-05T11:39:58.195Z,11.33
2023-01-05T11:40:58.189Z,11.44
2023-01-05T11:41:58.187Z,11.48
2023-01-05T11:42:58.180Z,11.40
2023-01-05T11:43:58.377Z,11.37
2023-01-05T11:44:58.173Z,11.40
2023-01-05T11:45:58.224Z,11.32
2023-01-05T11:46:58.166Z,11.37
2023-01-05T11:47:58.170Z,11.44
2023-01-05T11:48:58.170Z,11.37
2023-01-05T11:49:58.724Z,11.37
2023-01-05T11:50:58.180Z,11.33
2023-01-05T11:51:58.151Z,11.44
2023-01-05T11:52:58.159Z,11.41
2023-01-05T11:53:58.143Z,11.41
2023-01-05T11:54:58.140Z,11.45
2023-01-05T11:55:58.144Z,11.44
2023-01-05T11:56:58.142Z,11.51
2023-01-05T11:58:00.385Z,11.50
2023-01-05T11:58:58.136Z,11.48
2023-01-05T11:59:58.122Z,11.52
2023-01-05T12:00:58.318Z,11.44
2023-01-05T12:01:58.281Z,11.57
2023-01-05T12:02:58.184Z,11.54
2023-01-05T12:03:58.966Z,11.50
2023-01-05T12:04:58.132Z,11.45
2023-01-05T12:05:58.221Z,11.45
2023-01-05T12:06:58.101Z,11.44
2023-01-05T12:07:58.097Z,11.41
2023-01-05T12:08:58.252Z,11.44
2023-01-05T12:09:58.089Z,11.40
2023-01-05T12:10:58.091Z,11.50
2023-01-05T12:11:58.085Z,11.41
2023-01-05T12:12:58.082Z,11.36
2023-01-05T12:13:58.078Z,11.45
2023-01-05T12:14:58.078Z,11.50
2023-01-05T12:16:02.051Z,11.47
2023-01-05T12:16:58.070Z,11.55
2023-01-05T12:17:58.070Z,11.52
2023-01-05T12:18:58.071Z,11.59
2023-01-05T12:19:58.082Z,11.55
2023-01-05T12:20:58.056Z,11.55
2023-01-05T12:22:02.416Z,11.52
2023-01-05T12:22:58.253Z,11.54
2023-01-05T12:23:58.051Z,11.48
2023-01-05T12:24:58.047Z,11.51
2023-01-05T12:25:58.046Z,11.59
2023-01-05T12:26:58.042Z,11.55
2023-01-05T12:28:03.310Z,11.57
2023-01-05T12:30:09.135Z,11.51
2023-01-05T12:34:03.300Z,11.45
2023-01-05T12:34:58.015Z,11.41
2023-01-05T12:35:58.018Z,11.48
2023-01-05T12:36:58.010Z,11.51
2023-01-05T12:37:58.119Z,11.41
2023-01-05T12:38:58.002Z,11.37
2023-01-05T12:39:57.998Z,11.36
2023-01-05T12:40:57.999Z,11.32
2023-01-05T12:41:57.999Z,11.32
2023-01-05T12:42:57.986Z,11.29
2023-01-05T12:43:57.989Z,11.32
2023-01-05T12:44:57.982Z,11.29
2023-01-05T12:45:57.993Z,11.44
2023-01-05T12:46:58.023Z,11.27
2023-01-05T12:47:57.979Z,11.33
2023-01-05T12:48:57.968Z,11.36
2023-01-05T12:49:57.968Z,11.29
2023-01-05T12:50:57.979Z,11.27
2023-01-05T12:52:02.567Z,11.33
2023-01-05T12:52:57.965Z,11.30
2023-01-05T12:53:58.090Z,11.30
2023-01-05T12:54:57.951Z,11.30
2023-01-05T12:55:57.953Z,11.32
2023-01-05T12:56:57.948Z,11.35